createdAt,value
2022-11-07T00:01:53.965Z,9.80
2022-11-07T00:04:21.806Z,9.90
2022-11-07T00:06:49.677Z,9.90
2022-11-07T00:09:17.520Z,10.00
2022-11-07T00:11:45.239Z,10.00
2022-11-07T00:14:15.286Z,10.00
2022-11-07T00:16:43.622Z,10.00
2022-11-07T00:19:11.909Z,10.00
2022-11-07T00:21:39.685Z,10.00
2022-11-07T00:24:08.391Z,10.10
2022-11-07T00:26:36.560Z,10.10
2022-11-07T00:29:05.099Z,10.10
2022-11-07T00:31:42.621Z,10.10
2022-11-07T00:34:10.452Z,10.20
2022-11-07T00:36:41.301Z,10.20
2022-11-07T00:39:09.155Z,10.20
2022-11-07T00:41:37.049Z,10.20
2022-11-07T00:44:05.177Z,10.20
2022-11-07T00:46:34.269Z,10.20
2022-11-07T00:49:02.068Z,10.20
2022-11-07T00:51:30.121Z,10.30
2022-11-07T00:53:57.877Z,10.30
2022-11-07T00:56:26.818Z,10.30
2022-11-07T00:58:55.870Z,10.30
2022-11-07T01:01:26.076Z,10.30
2022-11-07T01:04:13.426Z,10.40
2022-11-07T01:06:43.626Z,10.30
2022-11-07T01:09:14.182Z,10.40
2022-11-07T01:11:42.632Z,10.40
2022-11-07T01:14:11.490Z,10.40
2022-11-07T01:16:39.739Z,10.40
2022-11-07T01:19:10.159Z,10.40
2022-11-07T01:21:39.603Z,10.50
2022-11-07T01:24:09.067Z,10.50
2022-11-07T01:26:38.471Z,10.50
2022-11-07T01:29:06.554Z,10.50
2022-11-07T01:31:34.277Z,10.50
2022-11-07T01:34:02.345Z,10.50
2022-11-07T01:36:31.570Z,10.50
2022-11-07T01:38:59.704Z,10.50
2022-11-07T01:41:29.497Z,10.50
2022-11-07T01:44:00.593Z,10.40
2022-11-07T01:46:31.686Z,10.40
2022-11-07T01:49:06.587Z,10.40
2022-11-07T01:51:41.873Z,10.40
2022-11-07T01:54:13.636Z,10.40
2022-11-07T01:56:43.887Z,10.40
2022-11-07T01:59:14.938Z,10.30
2022-11-07T02:01:43.353Z,10.40
2022-11-07T02:04:12.975Z,10.40
2022-11-07T02:06:46.736Z,10.40
2022-11-07T02:09:15.059Z,10.40
2022-11-07T02:11:42.808Z,10.50
2022-11-07T02:14:16.239Z,10.50
2022-11-07T02:16:44.422Z,10.50
2022-11-07T02:19:19.361Z,10.50
2022-11-07T02:21:54.716Z,10.50
2022-11-07T02:24:28.058Z,10.50
2022-11-07T02:26:57.915Z,10.60
2022-11-07T02:29:27.305Z,10.60
2022-11-07T02:32:02.831Z,10.60
2022-11-07T02:34:30.857Z,10.60
2022-11-07T02:37:00.937Z,10.60
2022-11-07T02:39:30.309Z,10.70
2022-11-07T02:42:01.149Z,10.70
2022-11-07T02:44:30.534Z,10.70
2022-11-07T02:46:58.630Z,10.80
2022-11-07T02:49:26.455Z,10.80
2022-11-07T02:51:54.295Z,10.80
2022-11-07T02:54:22.001Z,10.80
2022-11-07T02:56:51.043Z,10.90
2022-11-07T02:59:21.852Z,10.90
2022-11-07T03:01:53.797Z,10.90
2022-11-07T03:04:21.750Z,10.90
2022-11-07T03:06:49.438Z,10.90
2022-11-07T03:09:17.377Z,10.90
2022-11-07T03:11:45.117Z,11.00
2022-11-07T03:14:14.200Z,11.00
2022-11-07T03:16:42.116Z,11.00
2022-11-07T03:19:09.829Z,11.00
2022-11-07T03:21:37.595Z,11.00
2022-11-07T03:24:05.867Z,11.00
2022-11-07T03:26:33.571Z,11.00
2022-11-07T03:29:01.299Z,11.00
2022-11-07T03:31:30.382Z,11.00
2022-11-07T03:33:58.119Z,11.10
2022-11-07T03:36:25.840Z,11.10
2022-11-07T03:38:53.611Z,11.10
2022-11-07T03:41:21.375Z,11.10
2022-11-07T03:43:49.212Z,11.10
2022-11-07T03:46:17.499Z,11.10
2022-11-07T03:48:46.528Z,11.10
2022-11-07T03:51:14.291Z,11.10
2022-11-07T03:53:42.168Z,11.10
2022-11-07T03:56:12.301Z,11.10
2022-11-07T03:58:40.263Z,11.10
2022-11-07T04:01:10.318Z,11.10
2022-11-07T04:03:38.979Z,11.20
2022-11-07T04:06:08.709Z,11.20
2022-11-07T04:08:36.781Z,11.20
2022-11-07T04:11:04.610Z,11.20
2022-11-07T04:13:49.789Z,11.20
2022-11-07T04:16:37.392Z,11.20
2022-11-07T04:19:05.435Z,11.20
2022-11-07T04:21:34.610Z,11.20
2022-11-07T04:24:02.334Z,11.20
2022-11-07T04:26:47.845Z,11.20
2022-11-07T04:29:15.613Z,11.20
2022-11-07T04:31:43.280Z,11.20
2022-11-07T04:34:11.023Z,11.20
2022-11-07T04:36:40.092Z,11.20
2022-11-07T04:39:07.861Z,11.20
2022-11-07T04:41:35.576Z,11.20
2022-11-07T04:44:03.257Z,11.20
2022-11-07T04:46:30.940Z,11.20
2022-11-07T04:48:58.767Z,11.20
2022-11-07T04:51:26.654Z,11.20
2022-11-07T04:53:55.797Z,11.10
2022-11-07T04:56:23.534Z,11.10
2022-11-07T04:58:51.290Z,11.10
2022-11-07T05:01:19.366Z,11.10
2022-11-07T05:03:47.081Z,11.10
2022-11-07T05:06:15.816Z,11.10
2022-11-07T05:08:45.545Z,11.10
2022-11-07T05:11:14.590Z,11.00
2022-11-07T05:13:42.891Z,11.00
2022-11-07T05:16:15.041Z,11.00
2022-11-07T05:18:42.832Z,11.00
2022-11-07T05:21:10.733Z,11.00
2022-11-07T05:23:38.711Z,11.00
2022-11-07T05:26:06.904Z,11.00
2022-11-07T05:28:39.475Z,11.00
2022-11-07T05:31:09.407Z,11.00
2022-11-07T05:33:37.124Z,11.00
2022-11-07T05:36:12.644Z,11.00
2022-11-07T05:38:42.435Z,11.00
2022-11-07T05:41:10.317Z,11.00
2022-11-07T05:43:39.870Z,11.00
2022-11-07T05:46:08.079Z,11.00
2022-11-07T05:48:36.386Z,11.00
2022-11-07T05:51:04.590Z,11.00
2022-11-07T05:53:32.471Z,11.10
2022-11-07T05:56:01.382Z,11.10
2022-11-07T05:58:29.121Z,11.10
2022-11-07T06:01:01.999Z,11.10
2022-11-07T06:03:29.757Z,11.10
2022-11-07T06:05:57.530Z,11.00
2022-11-07T06:08:25.323Z,11.00
2022-11-07T06:10:53.157Z,10.90
2022-11-07T06:13:21.006Z,10.90
2022-11-07T06:15:48.748Z,11.00
2022-11-07T06:18:20.232Z,10.90
2022-11-07T06:20:48.076Z,11.00
2022-11-07T06:23:16.575Z,10.90
2022-11-07T06:25:44.674Z,10.90
2022-11-07T06:28:14.128Z,10.90
2022-11-07T06:30:42.558Z,10.80
2022-11-07T06:33:13.000Z,10.80
2022-11-07T06:35:42.657Z,10.80
2022-11-07T06:38:12.233Z,10.80
2022-11-07T06:40:40.658Z,10.70
2022-11-07T06:43:08.998Z,10.70
2022-11-07T06:45:37.362Z,10.70
2022-11-07T06:48:05.648Z,10.70
2022-11-07T06:50:33.513Z,10.70
2022-11-07T06:53:07.461Z,10.70
2022-11-07T06:55:35.938Z,10.70
2022-11-07T06:58:04.521Z,10.70
2022-11-07T07:00:33.848Z,10.70
2022-11-07T07:03:01.673Z,10.70
2022-11-07T07:05:29.544Z,10.70
2022-11-07T07:07:57.342Z,10.70
2022-11-07T07:10:26.695Z,10.70
2022-11-07T07:12:55.155Z,10.70
2022-11-07T07:15:23.152Z,10.80
2022-11-07T07:17:50.883Z,10.80
2022-11-07T07:20:18.912Z,10.90
2022-11-07T07:22:49.164Z,10.90
2022-11-07T07:25:21.116Z,11.00
2022-11-07T07:27:50.265Z,11.00
2022-11-07T07:30:18.340Z,11.00
2022-11-07T07:32:46.023Z,11.00
2022-11-07T07:35:13.773Z,11.10
2022-11-07T07:37:41.518Z,11.10
2022-11-07T07:40:10.963Z,11.10
2022-11-07T07:42:42.283Z,11.10
2022-11-07T07:45:13.460Z,11.10
2022-11-07T07:47:42.972Z,11.20
2022-11-07T07:50:12.665Z,11.20
2022-11-07T07:52:40.453Z,11.20
2022-11-07T07:55:10.194Z,11.20
2022-11-07T07:57:42.187Z,11.30
2022-11-07T08:00:13.295Z,11.30
2022-11-07T08:02:43.450Z,11.30
2022-11-07T08:05:12.168Z,11.30
2022-11-07T08:07:46.460Z,11.40
2022-11-07T08:10:39.718Z,11.40
2022-11-07T08:13:02.053Z,11.50
2022-11-07T08:15:31.162Z,11.50
2022-11-07T08:18:02.508Z,11.60
2022-11-07T08:20:30.350Z,11.60
2022-11-07T08:23:02.146Z,11.60
2022-11-07T08:25:29.891Z,11.60
2022-11-07T08:27:57.874Z,11.60
2022-11-07T08:30:26.827Z,11.70
2022-11-07T08:32:56.582Z,11.70
2022-11-07T08:35:24.395Z,11.80
2022-11-07T08:37:53.144Z,11.80
2022-11-07T08:40:21.133Z,11.90
2022-11-07T08:42:49.150Z,11.90
2022-11-07T08:45:16.965Z,11.90
2022-11-07T08:47:44.861Z,12.00
2022-11-07T08:50:14.033Z,12.00
2022-11-07T08:52:41.773Z,12.00
2022-11-07T08:55:10.359Z,12.00
2022-11-07T08:57:38.084Z,12.00
2022-11-07T09:00:06.949Z,12.10
2022-11-07T09:05:24.348Z,12.10
2022-11-07T09:07:52.081Z,12.20
2022-11-07T09:10:19.879Z,12.30
2022-11-07T09:12:49.259Z,12.30
2022-11-07T09:15:17.787Z,12.40
2022-11-07T09:17:46.407Z,12.40
2022-11-07T09:20:14.914Z,12.50
2022-11-07T09:22:44.278Z,12.60
2022-11-07T09:25:12.016Z,12.60
2022-11-07T09:27:39.843Z,12.70
2022-11-07T09:30:09.145Z,12.80
2022-11-07T09:32:45.850Z,12.90
2022-11-07T09:35:14.000Z,13.00
2022-11-07T09:37:42.587Z,13.00
2022-11-07T09:40:24.063Z,13.00
2022-11-07T09:43:08.209Z,13.00
2022-11-07T09:45:44.331Z,13.10
2022-11-07T09:48:20.656Z,13.00
2022-11-07T09:50:49.529Z,13.10
2022-11-07T09:53:30.600Z,13.10
2022-11-07T09:56:03.969Z,13.10
2022-11-07T09:58:37.553Z,13.00
2022-11-07T10:01:07.278Z,13.00
2022-11-07T10:03:38.132Z,13.00
2022-11-07T10:06:16.734Z,13.00
2022-11-07T10:08:50.247Z,13.00
2022-11-07T10:11:31.207Z,13.00
2022-11-07T10:14:05.494Z,13.00
2022-11-07T10:16:44.553Z,13.00
2022-11-07T10:19:37.967Z,13.10
2022-11-07T10:22:16.301Z,13.10
2022-11-07T10:24:58.772Z,13.10
2022-11-07T10:27:32.931Z,13.20
2022-11-07T10:30:02.404Z,13.20
2022-11-07T10:32:37.172Z,13.30
2022-11-07T10:35:17.061Z,13.30
2022-11-07T10:37:44.960Z,13.40
2022-11-07T10:40:18.082Z,13.40
2022-11-07T10:42:49.407Z,13.40
2022-11-07T10:45:18.624Z,13.40
2022-11-07T10:47:58.057Z,13.40
2022-11-07T10:50:26.685Z,13.50
2022-11-07T10:52:56.079Z,13.50
2022-11-07T10:55:24.682Z,13.60
2022-11-07T10:57:59.553Z,13.60
2022-11-07T11:00:29.361Z,13.70
2022-11-07T11:02:58.385Z,13.60
2022-11-07T11:05:28.826Z,13.70
2022-11-07T11:07:58.471Z,13.60
2022-11-07T11:10:31.798Z,13.70
2022-11-07T11:13:00.962Z,13.70
2022-11-07T11:15:35.344Z,13.70
2022-11-07T11:18:06.475Z,13.70
2022-11-07T11:20:37.681Z,13.70
2022-11-07T11:23:08.250Z,13.60
2022-11-07T11:25:45.536Z,13.60
2022-11-07T11:28:23.057Z,13.60
2022-11-07T11:30:57.561Z,13.60
2022-11-07T11:33:31.687Z,13.60
2022-11-07T11:36:04.700Z,13.60
2022-11-07T11:38:37.413Z,13.60
2022-11-07T11:41:14.182Z,13.60
2022-11-07T11:43:50.451Z,13.50
2022-11-07T11:46:26.663Z,13.50
2022-11-07T11:48:58.131Z,13.50
2022-11-07T11:51:38.382Z,13.50
2022-11-07T11:54:09.679Z,13.60
2022-11-07T11:56:54.017Z,13.60
2022-11-07T11:59:58.276Z,13.60
2022-11-07T12:02:51.040Z,13.60
2022-11-07T12:05:30.005Z,13.70
2022-11-07T12:08:15.231Z,13.70
2022-11-07T12:10:48.971Z,13.80
2022-11-07T12:13:24.032Z,13.90
2022-11-07T12:16:05.644Z,14.00
2022-11-07T12:18:40.298Z,14.10
2022-11-07T12:21:20.870Z,14.10
2022-11-07T12:24:01.148Z,14.10
2022-11-07T12:26:34.879Z,14.10
2022-11-07T12:29:17.605Z,14.10
2022-11-07T12:32:04.515Z,14.10
2022-11-07T12:34:52.051Z,14.00
2022-11-07T12:37:47.560Z,14.00
2022-11-07T12:40:28.735Z,14.00
2022-11-07T12:43:15.264Z,14.00
2022-11-07T12:45:49.435Z,14.00
2022-11-07T12:48:50.328Z,13.90
2022-11-07T12:51:33.488Z,13.90
2022-11-07T12:54:18.143Z,14.00
2022-11-07T12:56:48.261Z,14.00
2022-11-07T12:59:25.691Z,14.00
2022-11-07T13:02:02.941Z,14.10
2022-11-07T13:04:37.267Z,14.10
2022-11-07T13:07:14.148Z,14.10
2022-11-07T13:09:52.049Z,14.10
2022-11-07T13:12:29.414Z,14.10
2022-11-07T13:14:58.180Z,14.10
2022-11-07T13:17:27.832Z,14.10
2022-11-07T13:20:05.467Z,14.20
2022-11-07T13:22:36.331Z,14.20
2022-11-07T13:25:22.922Z,14.10
2022-11-07T13:28:07.972Z,14.10
2022-11-07T13:30:37.847Z,14.10
2022-11-07T13:33:06.820Z,14.10
2022-11-07T13:35:36.849Z,14.10
2022-11-07T13:38:10.260Z,14.00
2022-11-07T13:40:40.900Z,14.00
2022-11-07T13:43:13.759Z,13.90
2022-11-07T13:45:47.022Z,13.80
2022-11-07T13:48:19.721Z,13.70
2022-11-07T13:50:54.963Z,13.70
2022-11-07T13:53:28.061Z,13.60
2022-11-07T13:56:11.317Z,13.50
2022-11-07T13:58:42.646Z,13.50
2022-11-07T14:01:12.763Z,13.40
2022-11-07T14:03:41.933Z,13.40
2022-11-07T14:06:14.221Z,13.30
2022-11-07T14:08:45.780Z,13.30
2022-11-07T14:11:18.961Z,13.20
2022-11-07T14:13:49.329Z,13.20
2022-11-07T14:16:21.645Z,13.20
2022-11-07T14:18:51.818Z,13.20
2022-11-07T14:21:26.760Z,13.20
2022-11-07T14:23:55.136Z,13.20
2022-11-07T14:26:25.860Z,13.20
2022-11-07T14:28:56.879Z,13.20
2022-11-07T14:31:29.349Z,13.10
2022-11-07T14:34:00.275Z,13.20
2022-11-07T14:36:29.978Z,13.10
2022-11-07T14:39:03.959Z,13.10
2022-11-07T14:41:32.407Z,13.00
2022-11-07T14:44:05.079Z,13.10
2022-11-07T14:46:32.892Z,13.10
2022-11-07T14:49:01.039Z,13.00
2022-11-07T14:51:31.727Z,13.10
2022-11-07T14:54:02.512Z,13.00
2022-11-07T14:56:33.321Z,13.00
2022-11-07T14:59:01.556Z,13.00
2022-11-07T15:01:32.738Z,13.00
2022-11-07T15:04:02.857Z,13.00
2022-11-07T15:06:34.305Z,13.00
2022-11-07T15:09:04.751Z,13.00
2022-11-07T15:11:34.324Z,13.00
2022-11-07T15:14:05.014Z,13.00
2022-11-07T15:16:36.852Z,13.00
2022-11-07T15:19:07.180Z,12.90
2022-11-07T15:21:37.887Z,12.90
2022-11-07T15:24:31.147Z,12.90
2022-11-07T15:27:00.824Z,12.80
2022-11-07T15:29:33.776Z,12.80
2022-11-07T15:32:11.781Z,12.80
2022-11-07T15:35:00.783Z,12.80
2022-11-07T15:37:29.133Z,12.80
2022-11-07T15:39:57.096Z,12.70
2022-11-07T15:42:24.899Z,12.70
2022-11-07T15:44:52.665Z,12.70
2022-11-07T15:47:23.027Z,12.70
2022-11-07T15:49:51.173Z,12.70
2022-11-07T15:52:18.945Z,12.70
2022-11-07T15:54:47.976Z,12.70
2022-11-07T15:57:15.711Z,12.70
2022-11-07T15:59:43.636Z,12.60
2022-11-07T16:02:15.945Z,12.60
2022-11-07T16:04:44.104Z,12.70
2022-11-07T16:07:17.706Z,12.70
2022-11-07T16:09:48.374Z,12.70
2022-11-07T16:12:19.481Z,12.70
2022-11-07T16:14:47.170Z,12.70
2022-11-07T16:17:16.461Z,12.80
2022-11-07T16:19:44.255Z,12.80
2022-11-07T16:22:12.273Z,12.80
2022-11-07T16:24:39.946Z,12.80
2022-11-07T16:27:08.064Z,12.80
2022-11-07T16:29:37.139Z,12.80
2022-11-07T16:32:05.089Z,12.90
2022-11-07T16:34:33.776Z,12.90
2022-11-07T16:37:01.461Z,12.90
2022-11-07T16:39:29.215Z,12.90
2022-11-07T16:41:57.151Z,12.90
2022-11-07T16:44:26.586Z,12.90
2022-11-07T16:46:57.086Z,12.90
2022-11-07T16:49:29.285Z,12.90
2022-11-07T16:51:56.985Z,12.90
2022-11-07T16:54:25.102Z,12.90
2022-11-07T16:56:53.457Z,12.90
2022-11-07T16:59:23.506Z,12.90
2022-11-07T17:01:51.691Z,12.90
2022-11-07T17:04:20.811Z,12.90
2022-11-07T17:06:48.731Z,12.90
2022-11-07T17:09:19.216Z,13.00
2022-11-07T17:11:47.226Z,12.90
2022-11-07T17:14:14.965Z,13.00
2022-11-07T17:16:47.828Z,13.00
2022-11-07T17:19:15.946Z,13.00
2022-11-07T17:21:49.301Z,13.00
2022-11-07T17:24:17.610Z,13.00
2022-11-07T17:26:45.368Z,13.00
2022-11-07T17:29:14.648Z,13.00
2022-11-07T17:31:42.978Z,13.00
2022-11-07T17:34:11.275Z,13.00
2022-11-07T17:36:45.905Z,13.00
2022-11-07T17:39:16.879Z,13.10
2022-11-07T17:41:46.616Z,13.10
2022-11-07T17:44:14.396Z,13.10
2022-11-07T17:46:44.817Z,13.10
2022-11-07T17:49:15.388Z,13.10
2022-11-07T17:51:43.486Z,13.10
2022-11-07T17:54:13.592Z,13.00
2022-11-07T17:56:43.666Z,13.00
2022-11-07T17:59:14.778Z,13.10
2022-11-07T18:01:43.863Z,13.00
2022-11-07T18:04:13.894Z,13.00
2022-11-07T18:06:43.683Z,13.00
2022-11-07T18:09:15.456Z,13.00
2022-11-07T18:11:45.245Z,13.00
2022-11-07T18:14:14.474Z,13.00
2022-11-07T18:16:42.683Z,13.00
2022-11-07T18:19:11.052Z,13.00
2022-11-07T18:21:38.926Z,13.00
2022-11-07T18:24:07.410Z,12.90
2022-11-07T18:26:36.858Z,12.90
2022-11-07T18:29:08.630Z,12.90
2022-11-07T18:31:37.203Z,12.90
2022-11-07T18:34:06.902Z,12.90
2022-11-07T18:36:39.738Z,12.90
2022-11-07T18:39:09.020Z,12.90
2022-11-07T18:41:36.907Z,12.90
2022-11-07T18:44:06.204Z,12.90
2022-11-07T18:46:34.306Z,13.00
2022-11-07T18:49:02.254Z,13.00
2022-11-07T18:51:30.100Z,13.00
2022-11-07T18:54:00.035Z,13.00
2022-11-07T18:56:28.123Z,13.10
2022-11-07T18:58:56.673Z,13.10
2022-11-07T19:01:28.207Z,13.10
2022-11-07T19:03:57.899Z,13.10
2022-11-07T19:06:27.831Z,13.10
2022-11-07T19:08:55.545Z,13.10
2022-11-07T19:11:28.686Z,13.10
2022-11-07T19:13:58.429Z,13.10
2022-11-07T19:16:28.170Z,13.10
2022-11-07T19:18:56.015Z,13.10
2022-11-07T19:21:24.310Z,13.20
2022-11-07T19:23:52.657Z,13.20
2022-11-07T19:26:20.673Z,13.20
2022-11-07T19:28:49.150Z,13.20
2022-11-07T19:31:17.301Z,13.20
2022-11-07T19:33:46.579Z,13.20
2022-11-07T19:36:19.857Z,13.20
2022-11-07T19:38:48.799Z,13.20
2022-11-07T19:41:18.788Z,13.20
2022-11-07T19:43:49.801Z,13.20
2022-11-07T19:46:20.860Z,13.20
2022-11-07T19:48:51.264Z,13.10
2022-11-07T19:51:22.390Z,13.10
2022-11-07T19:53:54.087Z,13.10
2022-11-07T19:56:22.051Z,13.00
2022-11-07T19:58:50.034Z,13.00
2022-11-07T20:01:20.315Z,12.90
2022-11-07T20:03:51.236Z,12.90
2022-11-07T20:06:21.549Z,12.90
2022-11-07T20:08:49.357Z,12.90
2022-11-07T20:11:19.571Z,12.80
2022-11-07T20:13:47.960Z,12.80
2022-11-07T20:16:16.719Z,12.80
2022-11-07T20:18:45.198Z,12.80
2022-11-07T20:21:16.823Z,12.80
2022-11-07T20:23:46.216Z,12.80
2022-11-07T20:26:16.565Z,12.80
2022-11-07T20:28:44.307Z,12.80
2022-11-07T20:31:13.493Z,12.80
2022-11-07T20:33:41.226Z,12.80
2022-11-07T20:36:12.771Z,12.80
2022-11-07T20:38:43.040Z,12.80
2022-11-07T20:41:12.110Z,12.80
2022-11-07T20:43:40.114Z,12.80
2022-11-07T20:46:10.082Z,12.80
2022-11-07T20:48:38.394Z,12.80
2022-11-07T20:51:10.259Z,12.80
2022-11-07T20:53:38.710Z,12.80
2022-11-07T20:56:09.117Z,12.80
2022-11-07T20:58:38.807Z,12.80
2022-11-07T21:01:08.300Z,12.80
2022-11-07T21:03:36.638Z,12.80
2022-11-07T21:06:04.930Z,12.80
2022-11-07T21:08:37.135Z,12.80
2022-11-07T21:11:07.247Z,12.80
2022-11-07T21:13:35.449Z,12.80
2022-11-07T21:16:03.472Z,12.80
2022-11-07T21:18:31.279Z,12.80
2022-11-07T21:21:06.482Z,12.80
2022-11-07T21:23:34.329Z,12.80
2022-11-07T21:26:08.521Z,12.80
2022-11-07T21:28:40.494Z,12.90
2022-11-07T21:31:10.690Z,12.90
2022-11-07T21:33:38.816Z,12.90
2022-11-07T21:36:10.389Z,12.90
2022-11-07T21:38:38.644Z,12.90
2022-11-07T21:41:08.227Z,12.90
2022-11-07T21:43:35.996Z,12.90
2022-11-07T21:46:08.133Z,12.90
2022-11-07T21:48:36.557Z,12.90
2022-11-07T21:51:09.143Z,12.90
2022-11-07T21:53:38.184Z,13.00
2022-11-07T21:56:08.707Z,13.00
2022-11-07T21:58:36.677Z,13.00
2022-11-07T22:01:05.886Z,13.00
2022-11-07T22:04:04.539Z,13.00
2022-11-07T22:06:23.235Z,13.00
2022-11-07T22:08:52.527Z,13.00
2022-11-07T22:11:22.052Z,13.00
2022-11-07T22:13:49.834Z,13.00
2022-11-07T22:16:19.529Z,13.00
2022-11-07T22:18:48.221Z,13.00
2022-11-07T22:21:18.288Z,13.10
2022-11-07T22:23:46.205Z,13.10
2022-11-07T22:26:15.926Z,13.00
2022-11-07T22:28:46.232Z,13.10
2022-11-07T22:31:16.658Z,13.10
2022-11-07T22:33:44.717Z,13.10
2022-11-07T22:36:13.252Z,13.10
2022-11-07T22:38:41.768Z,13.10
2022-11-07T22:41:11.985Z,13.20
2022-11-07T22:43:39.919Z,13.20
2022-11-07T22:46:13.250Z,13.20
2022-11-07T22:48:41.444Z,13.20
2022-11-07T22:51:11.946Z,13.20
2022-11-07T22:53:40.103Z,13.20
2022-11-07T22:56:08.887Z,13.20
2022-11-07T22:58:36.853Z,13.20
2022-11-07T23:01:05.643Z,13.20
2022-11-07T23:03:34.704Z,13.20
2022-11-07T23:06:04.981Z,13.20
2022-11-07T23:08:34.212Z,13.30
2022-11-07T23:13:51.753Z,13.30
2022-11-07T23:16:21.423Z,13.20
2022-11-07T23:18:51.097Z,13.30
2022-11-07T23:21:20.428Z,13.30
2022-11-07T23:23:48.415Z,13.30
2022-11-07T23:26:18.370Z,13.30
2022-11-07T23:28:46.946Z,13.30
2022-11-07T23:31:15.685Z,13.30
2022-11-07T23:33:44.537Z,13.40
2022-11-07T23:36:14.938Z,13.40
2022-11-07T23:38:42.873Z,13.40
2022-11-07T23:41:13.331Z,13.40
2022-11-07T23:43:42.836Z,13.40
2022-11-07T23:46:30.428Z,13.40
2022-11-07T23:49:15.820Z,13.40
2022-11-07T23:51:47.312Z,13.40
2022-11-07T23:54:32.690Z,13.40
2022-11-07T23:57:01.812Z,13.50
2022-11-07T23:59:49.081Z,13.40
